createdAt,value
2018-01-11T00:01:15.967Z,5.68
2018-01-11T00:03:42.389Z,5.37
2018-01-11T00:06:08.821Z,6.25
2018-01-11T00:08:35.224Z,5.57
2018-01-11T00:11:01.648Z,5.12
2018-01-11T00:13:28.097Z,4.95
2018-01-11T00:15:54.516Z,5.68
2018-01-11T00:18:20.966Z,5.70
2018-01-11T00:20:47.369Z,4.93
2018-01-11T00:23:13.801Z,5.57
2018-01-11T00:25:40.220Z,4.97
2018-01-11T00:28:06.655Z,5.82
2018-01-11T00:30:33.092Z,4.90
2018-01-11T00:32:59.506Z,4.45
2018-01-11T00:35:26.665Z,4.20
2018-01-11T00:37:53.081Z,4.18
2018-01-11T00:40:20.258Z,4.53
2018-01-11T00:42:46.719Z,5.40
2018-01-11T00:45:13.957Z,4.72
2018-01-11T00:47:40.397Z,4.40
2018-01-11T00:50:06.826Z,4.35
2018-01-11T00:52:33.232Z,5.07
2018-01-11T00:55:00.373Z,4.37
2018-01-11T00:57:27.561Z,4.05
2018-01-11T00:59:53.967Z,3.85
2018-01-11T01:02:20.400Z,3.65
2018-01-11T01:04:46.820Z,3.40
2018-01-11T01:07:13.968Z,3.87
2018-01-11T01:09:41.134Z,4.57
2018-01-11T01:12:08.377Z,3.67
2018-01-11T01:14:35.621Z,3.67
2018-01-11T01:17:02.102Z,4.25
2018-01-11T01:19:28.502Z,3.83
2018-01-11T01:21:54.918Z,3.62
2018-01-11T01:24:22.078Z,4.40
2018-01-11T01:26:48.533Z,4.97
2018-01-11T01:29:14.949Z,4.37
2018-01-11T01:31:41.384Z,6.32
2018-01-11T01:34:08.528Z,7.87
2018-01-11T01:36:35.733Z,10.35
2018-01-11T01:39:02.233Z,13.48
2018-01-11T01:41:28.676Z,14.20
2018-01-11T01:43:55.098Z,14.55
2018-01-11T01:46:21.497Z,11.90
2018-01-11T01:48:48.670Z,12.65
2018-01-11T01:51:15.101Z,10.85
2018-01-11T01:53:41.500Z,13.50
2018-01-11T01:56:08.188Z,11.25
2018-01-11T01:58:34.604Z,11.68
2018-01-11T02:01:01.738Z,9.60
2018-01-11T02:03:28.215Z,7.68
2018-01-11T02:05:54.606Z,6.80
2018-01-11T02:08:21.037Z,4.62
2018-01-11T02:10:47.710Z,4.62
2018-01-11T02:13:14.153Z,4.87
2018-01-11T02:15:40.597Z,4.35
2018-01-11T02:18:07.932Z,3.95
2018-01-11T02:20:34.333Z,4.40
2018-01-11T02:23:00.729Z,3.55
2018-01-11T02:25:27.917Z,4.07
2018-01-11T02:27:54.361Z,3.95
2018-01-11T02:30:20.798Z,3.78
2018-01-11T02:32:47.338Z,3.35
2018-01-11T02:35:13.777Z,3.65
2018-01-11T02:37:40.181Z,3.00
2018-01-11T02:40:06.684Z,3.10
2018-01-11T02:42:33.089Z,2.58
2018-01-11T02:44:59.518Z,2.85
2018-01-11T02:47:26.022Z,2.50
2018-01-11T02:49:52.411Z,3.97
2018-01-11T02:52:18.837Z,4.68
2018-01-11T02:54:46.011Z,4.45
2018-01-11T02:57:13.197Z,5.05
2018-01-11T02:59:39.632Z,4.55
2018-01-11T03:02:06.029Z,4.55
2018-01-11T03:04:32.473Z,4.10
2018-01-11T03:06:59.633Z,3.42
2018-01-11T03:09:26.848Z,3.80
2018-01-11T03:11:53.250Z,4.32
2018-01-11T03:14:19.676Z,4.62
2018-01-11T03:16:46.077Z,4.22
2018-01-11T03:19:12.517Z,4.03
2018-01-11T03:21:38.953Z,4.55
2018-01-11T03:24:05.340Z,5.78
2018-01-11T03:26:31.872Z,8.02
2018-01-11T03:28:58.265Z,9.68
2018-01-11T03:31:24.758Z,9.90
2018-01-11T03:33:51.173Z,9.90
2018-01-11T03:36:17.647Z,9.80
2018-01-11T03:38:44.073Z,9.93
2018-01-11T03:41:10.566Z,10.27
2018-01-11T03:43:37.006Z,9.13
2018-01-11T03:46:04.234Z,9.70
2018-01-11T03:48:30.857Z,8.90
2018-01-11T03:50:57.258Z,9.52
2018-01-11T03:53:23.677Z,10.70
2018-01-11T03:55:50.864Z,9.45
2018-01-11T03:58:17.287Z,8.57
2018-01-11T04:00:43.692Z,10.20
2018-01-11T04:03:10.329Z,10.50
2018-01-11T04:05:36.733Z,10.50
2018-01-11T04:08:03.121Z,9.38
2018-01-11T04:10:29.580Z,10.18
2018-01-11T04:12:55.999Z,9.25
2018-01-11T04:15:22.457Z,9.80
2018-01-11T04:17:48.866Z,8.93
2018-01-11T04:20:15.317Z,8.40
2018-01-11T04:22:41.816Z,8.10
2018-01-11T04:25:08.221Z,7.35
2018-01-11T04:27:34.761Z,5.70
2018-01-11T04:30:01.910Z,5.57
2018-01-11T04:32:28.325Z,4.95
2018-01-11T04:34:54.750Z,4.40
2018-01-11T04:37:21.165Z,4.65
2018-01-11T04:39:47.605Z,3.80
2018-01-11T04:42:14.018Z,3.60
2018-01-11T04:44:40.438Z,3.72
2018-01-11T04:47:06.897Z,4.10
2018-01-11T04:49:33.327Z,4.25
2018-01-11T04:51:59.728Z,4.65
2018-01-11T04:54:26.857Z,8.15
2018-01-11T04:56:53.311Z,10.07
2018-01-11T04:59:19.724Z,10.32
2018-01-11T05:01:46.873Z,10.88
2018-01-11T05:04:14.050Z,10.80
2018-01-11T05:06:40.469Z,11.40
2018-01-11T05:09:07.644Z,23.08
2018-01-11T05:11:34.092Z,34.97
2018-01-11T05:14:00.525Z,34.03
2018-01-11T05:16:27.009Z,18.52
2018-01-11T05:18:54.220Z,12.50
2018-01-11T05:21:20.679Z,12.70
2018-01-11T05:23:47.112Z,13.48
2018-01-11T05:26:13.512Z,13.60
2018-01-11T05:28:39.932Z,16.02
2018-01-11T05:31:06.313Z,24.05
2018-01-11T05:33:32.739Z,19.15
2018-01-11T05:35:59.137Z,16.70
2018-01-11T05:38:25.577Z,18.08
2018-01-11T05:40:52.013Z,15.70
2018-01-11T05:43:18.493Z,17.90
2018-01-11T05:45:44.932Z,18.62
2018-01-11T05:48:11.334Z,17.40
2018-01-11T05:50:37.780Z,18.35
2018-01-11T05:53:04.948Z,19.60
2018-01-11T05:55:32.089Z,17.62
2018-01-11T05:57:59.215Z,20.58
2018-01-11T06:00:25.657Z,18.60
2018-01-11T06:02:52.060Z,18.62
2018-01-11T06:05:18.480Z,16.87
2018-01-11T06:07:44.912Z,18.00
2018-01-11T06:10:11.308Z,15.13
2018-01-11T06:12:37.757Z,14.45
2018-01-11T06:15:04.297Z,11.60
2018-01-11T06:17:30.767Z,11.27
2018-01-11T06:19:57.328Z,11.98
2018-01-11T06:22:24.468Z,11.05
2018-01-11T06:24:50.885Z,10.57
2018-01-11T06:27:18.087Z,9.68
2018-01-11T06:29:44.507Z,9.20
2018-01-11T06:32:12.301Z,9.00
2018-01-11T06:34:38.729Z,9.23
2018-01-11T06:37:05.146Z,8.45
2018-01-11T06:39:31.574Z,7.20
2018-01-11T06:41:57.980Z,6.68
2018-01-11T06:44:24.377Z,6.45
2018-01-11T06:46:50.817Z,6.60
2018-01-11T06:49:17.468Z,7.78
2018-01-11T06:51:43.907Z,6.80
2018-01-11T06:54:10.307Z,5.35
2018-01-11T06:56:36.853Z,5.72
2018-01-11T06:59:03.264Z,7.50
2018-01-11T07:01:29.668Z,6.78
2018-01-11T07:03:56.161Z,5.97
2018-01-11T07:06:22.600Z,5.30
2018-01-11T07:08:49.029Z,5.28
2018-01-11T07:11:16.287Z,5.45
2018-01-11T07:13:42.724Z,4.80
2018-01-11T07:16:09.125Z,5.60
2018-01-11T07:18:35.756Z,5.10
2018-01-11T07:21:02.185Z,6.43
2018-01-11T07:23:28.581Z,6.20
2018-01-11T07:25:55.750Z,5.30
2018-01-11T07:28:22.178Z,5.05
2018-01-11T07:30:48.589Z,4.90
2018-01-11T07:33:15.769Z,5.50
2018-01-11T07:35:42.207Z,5.18
2018-01-11T07:38:08.646Z,18.48
2018-01-11T07:40:35.062Z,12.73
2018-01-11T07:43:01.501Z,5.40
2018-01-11T07:45:27.901Z,5.03
2018-01-11T07:47:54.397Z,5.12
2018-01-11T07:50:20.868Z,5.00
2018-01-11T07:52:47.316Z,5.00
2018-01-11T07:55:14.482Z,5.60
2018-01-11T07:57:40.908Z,5.40
2018-01-11T08:00:08.041Z,5.22
2018-01-11T08:02:34.469Z,5.22
2018-01-11T08:05:00.838Z,4.72
2018-01-11T08:07:27.262Z,4.70
2018-01-11T08:09:53.725Z,6.00
2018-01-11T08:12:20.119Z,5.93
2018-01-11T08:14:47.248Z,6.93
2018-01-11T08:17:13.688Z,12.70
2018-01-11T08:19:40.816Z,5.30
2018-01-11T08:22:07.994Z,5.43
2018-01-11T08:24:35.192Z,5.30
2018-01-11T08:27:01.566Z,6.00
2018-01-11T08:29:28.777Z,6.03
2018-01-11T08:31:55.196Z,5.60
2018-01-11T08:34:21.573Z,4.70
2018-01-11T08:36:47.985Z,4.95
2018-01-11T08:39:14.405Z,4.80
2018-01-11T08:41:40.856Z,4.50
2018-01-11T08:44:07.224Z,4.47
2018-01-11T08:46:33.636Z,6.32
2018-01-11T08:49:00.037Z,7.35
2018-01-11T08:51:26.496Z,9.20
2018-01-11T08:53:52.858Z,10.95
2018-01-11T08:56:19.996Z,12.50
2018-01-11T08:58:46.418Z,11.70
2018-01-11T09:01:13.608Z,10.88
2018-01-11T09:03:40.009Z,12.95
2018-01-11T09:06:07.129Z,10.90
2018-01-11T09:08:34.308Z,11.60
2018-01-11T09:11:00.695Z,10.93
2018-01-11T09:13:27.162Z,12.13
2018-01-11T09:15:53.561Z,11.57
2018-01-11T09:18:19.944Z,11.05
2018-01-11T09:20:46.376Z,11.30
2018-01-11T09:23:13.497Z,11.63
2018-01-11T09:25:39.921Z,10.15
2018-01-11T09:28:06.364Z,10.00
2018-01-11T09:30:32.757Z,9.20
2018-01-11T09:32:59.486Z,8.55
2018-01-11T09:35:25.885Z,7.10
2018-01-11T09:37:52.338Z,8.40
2018-01-11T09:40:18.788Z,7.15
2018-01-11T09:42:45.202Z,6.97
2018-01-11T09:45:11.604Z,6.57
2018-01-11T09:47:37.974Z,7.45
2018-01-11T09:50:04.442Z,6.90
2018-01-11T09:52:30.839Z,6.40
2018-01-11T09:54:58.065Z,6.30
2018-01-11T09:57:25.256Z,5.87
2018-01-11T09:59:51.634Z,5.35
2018-01-11T10:02:18.078Z,4.60
2018-01-11T10:04:45.269Z,4.18
2018-01-11T10:07:11.718Z,3.35
2018-01-11T10:09:38.098Z,3.10
2018-01-11T10:12:05.311Z,4.10
2018-01-11T10:14:31.756Z,3.15
2018-01-11T10:16:58.126Z,3.08
2018-01-11T10:19:25.275Z,3.83
2018-01-11T10:21:51.693Z,3.50
2018-01-11T10:24:18.874Z,6.10
2018-01-11T10:26:45.361Z,7.18
2018-01-11T10:29:12.501Z,4.93
2018-01-11T10:31:38.935Z,10.45
2018-01-11T10:34:05.305Z,8.98
2018-01-11T10:36:31.695Z,6.82
2018-01-11T10:38:58.130Z,8.43
2018-01-11T10:41:24.496Z,7.30
2018-01-11T10:43:50.912Z,7.22
2018-01-11T10:46:18.176Z,7.45
2018-01-11T10:48:44.562Z,7.25
2018-01-11T10:51:10.969Z,6.25
2018-01-11T10:53:37.368Z,6.00
2018-01-11T10:56:04.519Z,5.03
2018-01-11T10:58:31.387Z,4.10
2018-01-11T11:01:03.781Z,3.55
2018-01-11T11:03:30.198Z,4.10
2018-01-11T11:05:56.660Z,5.10
2018-01-11T11:08:23.064Z,3.03
2018-01-11T11:10:49.444Z,3.10
2018-01-11T11:13:15.954Z,3.28
2018-01-11T11:15:42.340Z,4.45
2018-01-11T11:18:08.757Z,6.15
2018-01-11T11:20:35.892Z,9.30
2018-01-11T11:23:02.296Z,2.70
2018-01-11T11:25:28.710Z,2.50
2018-01-11T11:27:55.176Z,2.42
2018-01-11T11:30:21.540Z,2.30
2018-01-11T11:32:48.686Z,2.22
2018-01-11T11:35:15.133Z,2.28
2018-01-11T11:37:41.556Z,3.33
2018-01-11T11:40:08.677Z,3.50
2018-01-11T11:42:35.093Z,3.47
2018-01-11T11:45:01.458Z,2.50
2018-01-11T11:47:28.615Z,4.00
2018-01-11T11:49:55.728Z,3.00
2018-01-11T11:52:22.173Z,3.22
2018-01-11T11:54:49.318Z,3.80
2018-01-11T11:57:15.702Z,4.22
2018-01-11T11:59:42.121Z,4.25
2018-01-11T12:02:09.253Z,4.15
2018-01-11T12:04:35.643Z,4.90
2018-01-11T12:07:02.053Z,4.95
2018-01-11T12:09:28.441Z,6.70
2018-01-11T12:11:54.835Z,6.00
2018-01-11T12:14:21.278Z,6.20
2018-01-11T12:16:47.670Z,5.65
2018-01-11T12:19:14.077Z,6.60
2018-01-11T12:21:41.241Z,5.35
2018-01-11T12:24:08.394Z,6.10
2018-01-11T12:26:35.525Z,6.65
2018-01-11T12:29:01.881Z,6.12
2018-01-11T12:31:29.254Z,6.62
2018-01-11T12:33:55.642Z,8.40
2018-01-11T12:36:22.045Z,8.75
2018-01-11T12:38:48.449Z,6.05
2018-01-11T12:41:14.852Z,6.50
2018-01-11T12:43:41.964Z,6.78
2018-01-11T12:46:08.368Z,6.50
2018-01-11T12:48:34.885Z,6.68
2018-01-11T12:51:01.291Z,6.12
2018-01-11T12:53:28.430Z,6.90
2018-01-11T12:55:54.856Z,6.12
2018-01-11T12:58:21.241Z,6.10
2018-01-11T13:00:47.661Z,5.80
2018-01-11T13:03:14.088Z,6.15
2018-01-11T13:05:40.509Z,6.07
2018-01-11T13:08:06.949Z,6.70
2018-01-11T13:10:33.377Z,5.97
2018-01-11T13:12:59.801Z,6.18
2018-01-11T13:15:26.929Z,5.80
2018-01-11T13:17:53.285Z,6.22
2018-01-11T13:20:20.429Z,6.68
2018-01-11T13:22:47.585Z,5.57
2018-01-11T13:25:14.732Z,5.15
2018-01-11T13:27:41.137Z,6.40
2018-01-11T13:30:07.521Z,6.10
2018-01-11T13:32:33.949Z,5.35
2018-01-11T13:35:00.442Z,5.85
2018-01-11T13:37:26.872Z,5.50
2018-01-11T13:39:53.315Z,5.45
2018-01-11T13:42:19.752Z,4.25
2018-01-11T13:44:46.141Z,4.37
2018-01-11T13:47:12.513Z,4.65
2018-01-11T13:49:38.929Z,4.82
2018-01-11T13:52:05.326Z,5.20
2018-01-11T13:54:31.712Z,6.82
2018-01-11T13:56:58.937Z,5.35
2018-01-11T13:59:26.360Z,4.35
2018-01-11T14:01:52.776Z,4.93
2018-01-11T14:04:19.192Z,4.70
2018-01-11T14:06:46.311Z,5.40
2018-01-11T14:09:12.684Z,5.60
2018-01-11T14:11:39.116Z,5.90
2018-01-11T14:14:06.263Z,8.93
2018-01-11T14:16:33.404Z,5.37
2018-01-11T14:19:00.546Z,5.20
2018-01-11T14:21:26.933Z,6.22
2018-01-11T14:23:54.113Z,6.55
2018-01-11T14:26:20.541Z,5.82
2018-01-11T14:28:46.983Z,7.12
2018-01-11T14:31:13.404Z,8.80
2018-01-11T14:33:39.856Z,5.90
2018-01-11T14:36:06.988Z,10.20
2018-01-11T14:38:33.394Z,8.55
2018-01-11T14:40:59.817Z,6.68
2018-01-11T14:43:26.200Z,6.43
2018-01-11T14:45:52.593Z,5.60
2018-01-11T14:48:19.026Z,5.53
2018-01-11T14:50:45.404Z,6.20
2018-01-11T14:53:11.940Z,6.55
2018-01-11T14:55:38.304Z,6.95
2018-01-11T14:58:04.697Z,6.22
2018-01-11T15:00:31.113Z,7.20
2018-01-11T15:02:57.512Z,7.57
2018-01-11T15:05:23.944Z,7.32
2018-01-11T15:07:50.357Z,7.68
2018-01-11T15:10:16.766Z,7.62
2018-01-11T15:12:43.188Z,9.05
2018-01-11T15:15:09.557Z,8.15
2018-01-11T15:17:35.970Z,8.70
2018-01-11T15:20:02.462Z,8.00
2018-01-11T15:22:29.644Z,9.77
2018-01-11T15:24:56.862Z,11.02
2018-01-11T15:27:23.291Z,8.65
2018-01-11T15:29:49.740Z,8.68
2018-01-11T15:32:16.119Z,8.60
2018-01-11T15:34:42.546Z,8.48
2018-01-11T15:37:09.692Z,8.85
2018-01-11T15:39:36.118Z,7.75
2018-01-11T15:42:03.284Z,10.13
2018-01-11T15:44:29.676Z,17.58
2018-01-11T15:46:56.081Z,20.10
2018-01-11T15:49:22.574Z,17.50
2018-01-11T15:51:48.964Z,11.02
2018-01-11T15:54:16.321Z,10.88
2018-01-11T15:56:42.764Z,10.57
2018-01-11T15:59:09.161Z,9.40
2018-01-11T16:01:35.569Z,8.77
2018-01-11T16:04:01.988Z,8.68
2018-01-11T16:06:29.156Z,10.00
2018-01-11T16:08:55.558Z,10.75
2018-01-11T16:11:22.256Z,10.80
2018-01-11T16:13:48.670Z,9.52
2018-01-11T16:16:15.082Z,9.70
2018-01-11T16:18:41.960Z,10.05
2018-01-11T16:21:08.421Z,8.75
2018-01-11T16:23:34.893Z,9.63
2018-01-11T16:26:01.395Z,12.48
2018-01-11T16:28:28.541Z,12.90
2018-01-11T16:30:54.978Z,13.73
2018-01-11T16:33:22.173Z,12.07
2018-01-11T16:35:48.612Z,11.32
2018-01-11T16:38:15.221Z,11.05
2018-01-11T16:40:41.661Z,18.77
2018-01-11T16:43:08.057Z,16.27
2018-01-11T16:45:34.489Z,20.90
2018-01-11T16:48:00.945Z,17.55
2018-01-11T16:50:27.369Z,15.93
2018-01-11T16:52:53.825Z,14.65
2018-01-11T16:55:20.284Z,13.82
2018-01-11T16:57:46.705Z,15.02
2018-01-11T17:00:13.160Z,15.55
2018-01-11T17:02:39.627Z,14.87
2018-01-11T17:05:06.060Z,14.18
2018-01-11T17:07:33.242Z,18.23
2018-01-11T17:09:59.666Z,15.45
2018-01-11T17:12:26.146Z,16.48
2018-01-11T17:14:52.570Z,15.35
2018-01-11T17:17:19.084Z,11.00
2018-01-11T17:19:45.501Z,13.45
2018-01-11T17:22:11.953Z,13.80
2018-01-11T17:24:38.413Z,12.37
2018-01-11T17:27:05.137Z,13.52
2018-01-11T17:29:31.590Z,12.15
2018-01-11T17:31:58.026Z,11.65
2018-01-11T17:34:25.452Z,11.43
2018-01-11T17:36:51.916Z,9.57
2018-01-11T17:39:18.360Z,10.43
2018-01-11T17:41:44.824Z,13.10
2018-01-11T17:44:11.249Z,15.60
2018-01-11T17:46:38.441Z,17.87
2018-01-11T17:49:04.892Z,16.58
2018-01-11T17:51:31.375Z,17.17
2018-01-11T17:53:57.814Z,18.08
2018-01-11T17:56:24.304Z,19.12
2018-01-11T17:58:50.770Z,19.98
2018-01-11T18:01:17.257Z,19.25
2018-01-11T18:03:44.108Z,22.98
2018-01-11T18:06:10.574Z,21.33
2018-01-11T18:08:37.039Z,18.25
2018-01-11T18:11:03.494Z,18.00
2018-01-11T18:13:29.978Z,15.18
2018-01-11T18:15:57.589Z,12.93
2018-01-11T18:18:24.007Z,12.90
2018-01-11T18:20:50.427Z,12.63
2018-01-11T18:23:16.922Z,11.70
2018-01-11T18:25:43.360Z,11.80
2018-01-11T18:28:10.584Z,10.75
2018-01-11T18:30:37.180Z,14.10
2018-01-11T18:33:03.670Z,15.90
2018-01-11T18:35:30.118Z,15.73
2018-01-11T18:37:57.335Z,14.25
2018-01-11T18:40:23.846Z,12.80
2018-01-11T18:42:50.357Z,13.40
2018-01-11T18:45:16.797Z,13.18
2018-01-11T18:47:43.319Z,13.68
2018-01-11T18:50:10.587Z,12.30
2018-01-11T18:52:37.079Z,14.02
2018-01-11T18:55:03.541Z,16.05
2018-01-11T18:57:30.011Z,26.80
2018-01-11T18:59:56.445Z,23.60
2018-01-11T19:02:23.055Z,18.25
2018-01-11T19:04:49.485Z,27.55
2018-01-11T19:07:15.934Z,40.58
2018-01-11T19:09:42.366Z,26.67
2018-01-11T19:12:08.773Z,23.45
2018-01-11T19:14:35.239Z,28.45
2018-01-11T19:17:01.702Z,25.58
2018-01-11T19:19:28.310Z,23.05
2018-01-11T19:21:54.762Z,18.95
2018-01-11T19:24:22.020Z,30.45
2018-01-11T19:26:48.474Z,36.10
2018-01-11T19:29:16.101Z,28.08
2018-01-11T19:31:43.439Z,22.30
2018-01-11T19:34:09.875Z,26.25
2018-01-11T19:36:36.325Z,25.10
2018-01-11T19:39:02.874Z,28.73
2018-01-11T19:41:29.335Z,25.83
2018-01-11T19:43:55.829Z,27.30
2018-01-11T19:46:22.292Z,25.58
2018-01-11T19:48:49.504Z,23.60
2018-01-11T19:51:16.451Z,21.52
2018-01-11T19:53:42.865Z,20.65
2018-01-11T19:56:09.336Z,18.20
2018-01-11T19:58:35.775Z,18.50
2018-01-11T20:01:02.187Z,20.23
2018-01-11T20:03:28.642Z,19.75
2018-01-11T20:05:55.101Z,19.98
2018-01-11T20:08:21.629Z,17.30
2018-01-11T20:10:48.069Z,14.07
2018-01-11T20:13:14.544Z,15.93
2018-01-11T20:15:41.051Z,16.85
2018-01-11T20:18:07.523Z,21.25
2018-01-11T20:20:33.993Z,26.17
2018-01-11T20:23:00.472Z,23.55
2018-01-11T20:25:27.662Z,23.25
2018-01-11T20:27:54.842Z,22.85
2018-01-11T20:30:22.018Z,23.85
2018-01-11T20:32:48.576Z,23.12
2018-01-11T20:35:15.014Z,23.20
2018-01-11T20:37:41.409Z,36.45
2018-01-11T20:40:07.902Z,31.00
2018-01-11T20:42:34.351Z,30.45
2018-01-11T20:45:01.514Z,26.90
2018-01-11T20:47:27.988Z,23.77
2018-01-11T20:49:54.461Z,21.45
2018-01-11T20:52:20.910Z,25.37
2018-01-11T20:54:47.361Z,26.23
2018-01-11T20:57:13.785Z,25.40
2018-01-11T20:59:40.273Z,26.90
2018-01-11T21:02:06.701Z,24.42
2018-01-11T21:04:33.163Z,23.52
2018-01-11T21:06:59.656Z,20.40
2018-01-11T21:09:26.121Z,20.33
2018-01-11T21:11:53.328Z,21.37
2018-01-11T21:14:19.750Z,20.25
2018-01-11T21:16:46.198Z,22.65
2018-01-11T21:19:12.646Z,19.17
2018-01-11T21:21:39.125Z,26.37
2018-01-11T21:24:05.599Z,21.15
2018-01-11T21:26:32.050Z,18.42
2018-01-11T21:28:58.472Z,20.70
2018-01-11T21:31:24.992Z,20.42
2018-01-11T21:33:51.450Z,19.00
2018-01-11T21:36:17.904Z,18.45
2018-01-11T21:38:45.125Z,20.70
2018-01-11T21:41:11.583Z,23.08
2018-01-11T21:43:38.856Z,23.77
2018-01-11T21:46:06.075Z,23.80
2018-01-11T21:48:32.490Z,21.30
2018-01-11T21:50:58.964Z,30.83
2018-01-11T21:53:25.418Z,27.50
2018-01-11T21:55:51.879Z,24.17
2018-01-11T21:58:18.321Z,25.27
2018-01-11T22:00:44.808Z,20.88
2018-01-11T22:03:11.317Z,22.02
2018-01-11T22:05:37.788Z,21.52
2018-01-11T22:08:04.233Z,23.92
2018-01-11T22:10:30.725Z,22.62
2018-01-11T22:12:57.229Z,22.23
2018-01-11T22:15:23.665Z,23.67
2018-01-11T22:17:50.296Z,24.52
2018-01-11T22:20:17.540Z,26.17
2018-01-11T22:22:44.018Z,26.62
2018-01-11T22:25:10.482Z,27.27
2018-01-11T22:27:36.967Z,22.90
2018-01-11T22:30:03.420Z,29.40
2018-01-11T22:32:30.611Z,24.05
2018-01-11T22:34:57.073Z,23.35
2018-01-11T22:37:23.494Z,25.35
2018-01-11T22:39:49.912Z,24.65
2018-01-11T22:42:16.369Z,30.98
2018-01-11T22:44:43.536Z,24.87
2018-01-11T22:47:10.004Z,25.88
2018-01-11T22:49:37.176Z,25.58
2018-01-11T22:52:03.622Z,24.55
2018-01-11T22:54:30.134Z,26.62
2018-01-11T22:56:56.589Z,27.00
2018-01-11T22:59:23.026Z,28.55
2018-01-11T23:01:49.492Z,28.87
2018-01-11T23:04:15.956Z,27.60
2018-01-11T23:06:42.401Z,31.58
2018-01-11T23:09:08.796Z,27.77
2018-01-11T23:11:42.368Z,31.62
2018-01-11T23:14:08.826Z,28.02
2018-01-11T23:16:35.258Z,23.35
2018-01-11T23:19:01.693Z,26.08
2018-01-11T23:21:28.128Z,26.70
2018-01-11T23:23:54.539Z,23.77
2018-01-11T23:26:20.978Z,21.77
2018-01-11T23:28:47.417Z,22.80
2018-01-11T23:31:14.020Z,22.40
2018-01-11T23:33:40.463Z,25.67
2018-01-11T23:36:06.913Z,25.55
2018-01-11T23:38:33.338Z,22.92
2018-01-11T23:40:59.888Z,24.20
2018-01-11T23:43:26.357Z,22.30
2018-01-11T23:45:52.800Z,23.25
2018-01-11T23:48:19.980Z,24.25
2018-01-11T23:50:46.396Z,26.42
2018-01-11T23:53:12.796Z,26.15
2018-01-11T23:55:39.513Z,23.35
2018-01-11T23:58:06.673Z,25.05
